• Join FlightAware (Why Join?)
  • Login
  • US Flag 
12:50AM EST


 

Airport Tracker/Info


-or-


 

Live Flight TrackerFlight Track Log ✈ FIN666 ✈ 29-Oct-2013 ✈ EKCH / CPH - EFHK / HEL

Flight Track Log - Related Links

Times and Time Zones

All times are in EDT time to prevent confusion due to time zone crossing. See the FIN666 flight status page for this flight to view local times or setup timezone preferences in your user account.

Time Position Orientation Groundspeed Altitude Reporting Facility
EDT Latitude Longitude Course Direction KTS MPH feet Rate Location/Type
08:19AM 55.8592 13.1550 49° Northeast  Level Estimated
08:20AM 55.9392 13.3227 50° Northeast  Level Estimated
08:21AM 56.0189 13.4911 50° Northeast  Level Estimated
08:22AM 56.0985 13.6603 50° Northeast  Level Estimated
08:23AM 56.1777 13.8301 50° Northeast  Level Estimated
08:24AM 56.2568 14.0006 50° Northeast  Level Estimated
08:25AM 56.3381 14.1772 50° Northeast  Level Estimated
08:26AM 56.4192 14.3547 50° Northeast  Level Estimated
08:27AM 56.5000 14.5328 51° Northeast  Level Estimated
08:28AM 56.5805 14.7118 51° Northeast  Level Estimated
08:29AM 56.6608 14.8915 51° Northeast  Level Estimated
08:30AM 56.7409 15.0719 51° Northeast  Level Estimated
08:31AM 56.8206 15.2531 51° Northeast  Level Estimated
08:32AM 56.9002 15.4352 51° Northeast  Level Estimated
08:33AM 56.9794 15.6179 51° Northeast  Level Estimated
08:34AM 57.0584 15.8015 52° Northeast  Level Estimated
08:35AM 57.1371 15.9858 52° Northeast  Level Estimated
08:36AM 57.2155 16.1709 52° Northeast  Level Estimated
08:37AM 57.2937 16.3569 52° Northeast  Level Estimated
08:38AM 57.3716 16.5436 52° Northeast  Level Estimated
08:39AM 57.4492 16.7311 52° Northeast  Level Estimated
08:40AM 57.5265 16.9193 53° Northeast  Level Estimated
08:41AM 57.6036 17.1084 53° Northeast  Level Estimated
08:42AM 57.6804 17.2983 53° Northeast  Level Estimated
08:43AM 57.7568 17.4890 53° Northeast  Level Estimated
08:44AM 57.8330 17.6805 53° Northeast  Level Estimated
08:45AM 57.9089 17.8728 53° Northeast  Level Estimated
08:46AM 57.9845 18.0660 54° Northeast  Level Estimated
08:47AM 58.0598 18.2599 54° Northeast  Level Estimated
08:48AM 58.1349 18.4547 54° Northeast  Level Estimated
08:49AM 58.2096 18.6502 54° Northeast  Level Estimated
08:50AM 58.2840 18.8466 54° Northeast  Level Estimated
08:51AM 58.3581 19.0439 54° Northeast  Level Estimated
08:52AM 58.4319 19.2419 54° Northeast  Level Estimated
08:53AM 58.5055 19.4408 55° Northeast  Level Estimated
08:54AM 58.5787 19.6405 55° Northeast  Level Estimated
08:55AM 58.6516 19.8411 55° Northeast  Level Estimated
08:56AM 58.7241 20.0425 55° Northeast  Level Estimated
08:57AM 58.7964 20.2447 55° Northeast  Level Estimated
08:58AM 58.8683 20.4478 56° Northeast  Level Estimated
08:59AM 58.9399 20.6517 56° Northeast  Level Estimated
09:00AM 59.0112 20.8565 56° Northeast  Level Estimated
09:01AM 59.0822 21.0621 56° Northeast  Level Estimated
09:02AM 59.1529 21.2685 56° Northeast  Level Estimated
09:03AM 59.2232 21.4758 56° Northeast  Level Estimated
09:04AM 59.2932 21.6840 57° Northeast  Level Estimated
09:05AM 59.3629 21.8930 57° Northeast  Level Estimated
09:06AM 59.4322 22.1029 57° Northeast  Level Estimated
09:07AM 59.5011 22.3137 57° Northeast  Level Estimated
09:08AM 59.5698 22.5253 57° Northeast  Level Estimated
09:09AM 59.6381 22.7377 57° Northeast  Level Estimated
09:10AM 59.7061 22.9511 58° Northeast  Level Estimated
09:11AM 59.7737 23.1653 58° Northeast  Level Estimated
09:12AM 59.8409 23.3803 58° Northeast  Level Estimated
09:13AM 59.9078 23.5963 58° Northeast  Level Estimated
09:14AM 59.9744 23.8131 58° Northeast  Level Estimated
09:15AM 60.0406 24.0307 59° Northeast  Level Estimated
09:16AM 60.1064 24.2493 59° Northeast  Level Estimated
09:17AM 60.1719 24.4687 59° Northeast  Level Estimated
09:18AM 60.2370 24.6890 59° Northeast  Level Estimated
09:19AM 60.3018 24.9102 59° Northeast  Level Estimated
09:20AM 60.3172 24.9633 60° Northeast  Level Estimated
09:21AM 60.3172 24.9633 37° Northeast  Level Estimated
09:22AM 60.3172 24.9633 37° Northeast  Level Estimated
09:23AM 60.3172 24.9633 37° Northeast  Level Estimated
09:24AM 60.3172 24.9633 37° Northeast  Level Estimated
09:25AM 60.3172 24.9633 37° Northeast  Level Estimated
09:26AM 60.3172 24.9633 37° Northeast  Level Estimated
09:27AM 60.3172 24.9633 37° Northeast  Level Estimated
09:28AM 60.3172 24.9633 37° Northeast  Level Estimated
09:29AM 60.3172 24.9633 37° Northeast  Level Estimated
09:30AM 60.3172 24.9633 37° Northeast  Level Estimated
09:31AM 60.3172 24.9633 37° Northeast  Level Estimated